Time;durP1;ratioP1;P1;durP2;ratioP2;P2;SDS_P1;SDS_P2;PMS_P1;PMS_P2;Temp;Humidity;BMP_temperature;BMP_pressure;BME280_temperature;BME280_humidity;BME280_pressure;Samples;Min_cycle;Max_cycle;Signal;HPM_P1;HPM_P2
2022/03/07 00:02:07;;;;;;;3.00;1.50;;;-0.80;99.90;;;;;;5040905;28;20073;-54
2022/03/07 00:04:33;;;;;;;6.78;1.90;;;;;;;;;;5027648;28;20038;-52
2022/03/07 00:07:01;;;;;;;8.45;2.20;;;;;;;;;;5040784;28;20048;-53
2022/03/07 00:09:27;;;;;;;6.38;1.77;;;;;;;;;;5033193;28;20033;-50
2022/03/07 00:11:53;;;;;;;7.88;2.20;;;;;;;;;;5032433;28;20045;-52
2022/03/07 00:14:20;;;;;;;9.35;2.05;;;;;;;;;;5015656;28;20064;-52
2022/03/07 00:16:46;;;;;;;7.80;2.00;;;;;;;;;;5034991;28;20040;-54
2022/03/07 00:19:12;;;;;;;11.32;2.95;;;;;;;;;;5034440;28;20033;-50
2022/03/07 00:21:38;;;;;;;6.95;3.25;;;;;;;;;;5039036;28;20045;-53
2022/03/07 00:24:06;;;;;;;8.35;2.08;;;-1.00;99.90;;;;;;5033896;28;20429;-51
2022/03/07 00:26:32;;;;;;;6.25;2.22;;;;;;;;;;5026449;28;20025;-48
2022/03/07 00:28:58;;;;;;;6.72;2.05;;;;;;;;;;5036505;28;20051;-52
2022/03/07 00:31:26;;;;;;;6.85;2.20;;;;;;;;;;5036761;28;20410;-53
2022/03/07 00:33:53;;;;;;;5.88;1.95;;;;;;;;;;5034043;28;20069;-50
2022/03/07 00:36:19;;;;;;;11.05;2.13;;;;;;;;;;5035428;28;20045;-50
2022/03/07 00:42:11;;;;;;;7.78;2.30;;;;;;;;;;5027741;28;20079;-49
2022/03/07 00:44:37;;;;;;;5.00;2.17;;;;;;;;;;5028712;28;20084;-50
2022/03/07 00:47:04;;;;;;;6.82;2.28;;;;;;;;;;5033558;28;20119;-48
2022/03/07 00:49:30;;;;;;;8.75;2.15;;;;;;;;;;5034945;28;20128;-50
2022/03/07 00:51:56;;;;;;;6.00;2.42;;;;;;;;;;5040369;28;20072;-49
2022/03/07 00:54:23;;;;;;;11.73;3.10;;;;;;;;;;5032055;28;20033;-47
2022/03/07 00:56:49;;;;;;;11.00;3.70;;;;;;;;;;5031364;28;20533;-49
2022/03/07 00:59:15;;;;;;;7.85;2.97;;;;;;;;;;5036602;28;20506;-48
2022/03/07 01:01:42;;;;;;;9.48;3.58;;;;;;;;;;5036652;28;20083;-49
2022/03/07 01:04:09;;;;;;;11.35;4.28;;;;;;;;;;5016435;28;20394;-50
2022/03/07 01:06:35;;;;;;;11.65;3.97;;;;;;;;;;5039165;28;20136;-48
2022/03/07 01:09:03;;;;;;;13.30;4.32;;;;;;;;;;5037441;28;20234;-48
2022/03/07 01:11:29;;;;;;;8.07;2.92;;;;;;;;;;5040078;28;20594;-51
2022/03/07 01:13:55;;;;;;;6.82;3.55;;;;;;;;;;5026341;28;20083;-49
2022/03/07 01:16:21;;;;;;;9.63;3.33;;;;;;;;;;5031296;28;20072;-48
2022/03/07 01:18:47;;;;;;;10.45;3.40;;;;;;;;;;5035318;28;20132;-50
2022/03/07 01:21:13;;;;;;;9.50;3.20;;;;;;;;;;5032965;28;20033;-50
2022/03/07 01:23:39;;;;;;;8.50;2.70;;;;;;;;;;5040010;28;20075;-50
2022/03/07 01:26:05;;;;;;;17.33;4.22;;;;;;;;;;5030968;28;20044;-51
2022/03/07 01:28:31;;;;;;;23.50;5.25;;;;;;;;;;5031062;28;20049;-50
2022/03/07 01:30:57;;;;;;;7.43;3.50;;;;;;;;;;5031449;28;20530;-53
2022/03/07 01:33:23;;;;;;;7.57;2.65;;;;;;;;;;5026432;28;20025;-50
2022/03/07 01:35:51;;;;;;;12.60;3.50;;;;;;;;;;5032808;28;20048;-51
2022/03/07 01:38:17;;;;;;;7.13;3.17;;;;;;;;;;5033424;28;20042;-51
2022/03/07 01:40:45;;;;;;;7.63;3.00;;;;;;;;;;5037283;28;20087;-49
2022/03/07 01:43:11;;;;;;;8.68;3.47;;;;;;;;;;5029132;28;20506;-48
2022/03/07 01:45:40;;;;;;;6.32;3.08;;;;;;;;;;5030960;28;20064;-50
2022/03/07 01:48:06;;;;;;;7.20;2.97;;;;;;;;;;5033460;28;20045;-54
2022/03/07 01:50:33;;;;;;;5.97;2.70;;;;;;;;;;5034099;28;20048;-49
2022/03/07 01:52:59;;;;;;;9.02;3.25;;;;;;;;;;5033583;28;20047;-52
2022/03/07 01:55:25;;;;;;;8.63;2.75;;;;;;;;;;5037372;28;20132;-54
2022/03/07 01:57:52;;;;;;;8.57;3.17;;;;;;;;;;5027101;28;20073;-54
2022/03/07 02:00:23;;;;;;;11.95;4.10;;;;;;;;;;5032720;28;20521;-49
2022/03/07 02:02:49;;;;;;;10.38;3.00;;;;;;;;;;5014331;28;20067;-53
2022/03/07 02:05:15;;;;;;;9.02;3.00;;;;;;;;;;5030076;28;20443;-51
2022/03/07 02:07:43;;;;;;;6.45;3.17;;;;;;;;;;5039171;28;20075;-50
2022/03/07 02:10:11;;;;;;;11.00;3.22;;;;;;;;;;5039560;28;20042;-50
2022/03/07 02:12:37;;;;;;;8.13;3.03;;;;;;;;;;5032708;28;20037;-51
2022/03/07 02:15:04;;;;;;;5.38;2.67;;;;;;;;;;5039689;28;20076;-54
2022/03/07 02:17:30;;;;;;;8.63;2.80;;;;;;;;;;5034214;28;20041;-49
2022/03/07 02:19:56;;;;;;;10.55;3.47;;;;;;;;;;5040159;28;20045;-53
2022/03/07 02:22:24;;;;;;;8.32;3.30;;;;;;;;;;5033758;28;20445;-51
2022/03/07 02:24:52;;;;;;;9.48;3.88;;;;;;;;;;5035570;28;20100;-52
2022/03/07 02:27:18;;;;;;;8.88;3.40;;;;;;;;;;5032249;28;20129;-48
2022/03/07 02:29:45;;;;;;;11.35;3.30;;;;;;;;;;5034425;28;20049;-51
2022/03/07 02:32:13;;;;;;;11.93;3.10;;;;;;;;;;5037351;28;20084;-49
2022/03/07 02:34:39;;;;;;;9.35;3.35;;;;;;;;;;5028085;28;20917;-49
2022/03/07 02:37:05;;;;;;;6.50;3.00;;;;;;;;;;5036436;28;20056;-50
2022/03/07 02:39:32;;;;;;;7.80;3.17;;;;;;;;;;5026020;28;20037;-52
2022/03/07 02:41:58;;;;;;;6.95;2.65;;;;;;;;;;5034492;28;20466;-50
2022/03/07 02:44:24;;;;;;;8.27;2.90;;;;;;;;;;5034843;28;20052;-52
2022/03/07 02:46:50;;;;;;;11.65;3.45;;;;;;;;;;5028644;28;20088;-51
2022/03/07 02:49:16;;;;;;;9.45;3.10;;;;;;;;;;5033090;28;20052;-48
2022/03/07 02:51:43;;;;;;;5.35;2.72;;;;;;;;;;5037840;28;20037;-52
2022/03/07 02:54:09;;;;;;;8.43;2.70;;;;;;;;;;5035718;28;20044;-53
2022/03/07 02:56:35;;;;;;;9.20;2.97;;;;;;;;;;5033439;28;20567;-52
2022/03/07 02:59:01;;;;;;;7.85;2.85;;;;;;;;;;5029171;28;20041;-52
2022/03/07 03:01:28;;;;;;;8.45;3.25;;;;;;;;;;5020763;28;20045;-51
2022/03/07 03:03:54;;;;;;;8.77;2.67;;;;;;;;;;5028759;28;20124;-51
2022/03/07 03:06:22;;;;;;;6.10;2.50;;;;;;;;;;5037781;28;20178;-49
2022/03/07 03:08:48;;;;;;;9.77;3.38;;;;;;;;;;5036498;28;20069;-48
2022/03/07 03:11:16;;;;;;;5.88;3.05;;;;;;;;;;5015733;28;20049;-50
2022/03/07 03:13:42;;;;;;;6.00;2.80;;;;;;;;;;5024411;28;20049;-49
2022/03/07 03:16:08;;;;;;;6.45;2.78;;;;;;;;;;5031714;28;20489;-49
2022/03/07 03:18:34;;;;;;;7.53;3.28;;;;;;;;;;5036518;28;20095;-51
2022/03/07 03:21:00;;;;;;;9.75;2.50;;;;;;;;;;5037489;28;20045;-49
2022/03/07 03:23:26;;;;;;;8.38;2.63;;;;;;;;;;5032500;28;20040;-54
2022/03/07 03:25:52;;;;;;;8.40;3.55;;;;;;;;;;5034205;28;20041;-51
2022/03/07 03:28:18;;;;;;;6.72;2.60;;;;;;;;;;5029846;28;20054;-50
2022/03/07 03:30:44;;;;;;;10.95;3.25;;;;;;;;;;5016385;28;20045;-51
2022/03/07 03:33:12;;;;;;;7.85;3.00;;;;;;;;;;5036898;28;20639;-49
2022/03/07 03:35:38;;;;;;;13.15;2.97;;;;;;;;;;5034270;28;20493;-50
2022/03/07 03:38:05;;;;;;;10.95;3.17;;;;;;;;;;5039587;28;20045;-52
2022/03/07 03:40:33;;;;;;;9.48;2.65;;;;;;;;;;5018853;28;20068;-50
2022/03/07 03:42:59;;;;;;;6.43;2.40;;;;;;;;;;5043292;28;20045;-50
2022/03/07 03:45:26;;;;;;;12.02;3.25;;;;;;;;;;5036792;28;20057;-50
2022/03/07 03:47:52;;;;;;;8.40;3.10;;;;;;;;;;5031762;28;20096;-53
2022/03/07 03:50:18;;;;;;;7.05;2.80;;;;;;;;;;5039126;28;20044;-50
2022/03/07 03:52:44;;;;;;;5.70;2.83;;;;;;;;;;5018991;28;20077;-51
2022/03/07 03:55:11;;;;;;;10.07;3.53;;;;;;;;;;5039341;28;20582;-53
2022/03/07 03:57:40;;;;;;;7.68;3.60;;;;;;;;;;5034248;28;20033;-50
2022/03/07 04:00:07;;;;;;;9.20;2.97;;;;;;;;;;5042565;28;20442;-52
2022/03/07 04:02:33;;;;;;;4.90;2.92;;;;;;;;;;5040233;28;20065;-50
2022/03/07 04:05:02;;;;;;;9.75;3.40;;;;;;;;;;5037962;28;20077;-49
2022/03/07 04:07:30;;;;;;;7.55;3.30;;;;;;;;;;5032664;28;20041;-53
2022/03/07 04:09:56;;;;;;;10.00;3.63;;;;;;;;;;5039790;28;20039;-49
2022/03/07 04:12:22;;;;;;;7.30;3.10;;;;;;;;;;5040358;28;20501;-53
2022/03/07 04:14:50;;;;;;;12.00;3.65;;;;;;;;;;5019858;28;20036;-49
2022/03/07 04:17:16;;;;;;;10.30;2.97;;;;;;;;;;5031640;28;20038;-49
2022/03/07 04:19:42;;;;;;;11.95;3.28;;;;;;;;;;5034206;28;20413;-51
2022/03/07 04:22:10;;;;;;;8.10;4.00;;;;;;;;;;5033907;28;20609;-53
2022/03/07 04:24:39;;;;;;;7.88;3.35;;;;;;;;;;5031050;28;20040;-50
2022/03/07 04:27:05;;;;;;;12.18;3.83;;;;;;;;;;5027809;28;20049;-50
2022/03/07 04:29:31;;;;;;;7.25;3.80;;;;;;;;;;5035363;28;20148;-51
2022/03/07 04:31:57;;;;;;;7.15;3.22;;;;;;;;;;5035943;28;20041;-50
2022/03/07 04:34:23;;;;;;;12.50;3.88;;;;;;;;;;5039817;28;20044;-49
2022/03/07 04:36:49;;;;;;;7.65;3.75;;;;;;;;;;5029590;28;20049;-54
2022/03/07 04:39:16;;;;;;;10.77;3.45;;;;;;;;;;5027978;28;20060;-53
2022/03/07 04:41:44;;;;;;;9.80;3.03;;;;;;;;;;5033032;28;20601;-51
2022/03/07 04:44:10;;;;;;;7.47;3.35;;;;;;;;;;5037563;28;20056;-52
2022/03/07 04:46:37;;;;;;;9.80;3.63;;;;;;;;;;5037745;28;20120;-49
2022/03/07 04:49:03;;;;;;;10.55;3.33;;;;;;;;;;5032742;28;20158;-50
2022/03/07 04:51:29;;;;;;;8.32;3.92;;;;;;;;;;5024106;28;20037;-50
2022/03/07 04:53:55;;;;;;;11.27;4.07;;;;;;;;;;5032851;28;20141;-51
2022/03/07 04:56:23;;;;;;;10.85;4.53;;;;;;;;;;5027690;28;20122;-52
2022/03/07 04:58:49;;;;;;;6.53;2.90;;;;;;;;;;5035321;28;20067;-53
2022/03/07 05:01:15;;;;;;;10.45;3.65;;;;;;;;;;5038842;28;20040;-50
2022/03/07 05:03:42;;;;;;;7.50;2.70;;;;;;;;;;5037553;28;20045;-49
2022/03/07 05:06:10;;;;;;;11.73;3.40;;;;;;;;;;5036735;28;20052;-50
2022/03/07 05:08:39;;;;;;;6.10;2.80;;;;;;;;;;5032240;28;20455;-51
2022/03/07 05:11:05;;;;;;;7.93;2.78;;;;;;;;;;5040216;28;20061;-53
2022/03/07 05:13:32;;;;;;;9.95;3.97;;;;;;;;;;5033817;28;20041;-52
2022/03/07 05:15:58;;;;;;;7.78;2.55;;;;;;;;;;5037642;28;20130;-51
2022/03/07 05:18:24;;;;;;;8.52;3.35;;;;;;;;;;5033461;28;20045;-53
2022/03/07 05:20:50;;;;;;;9.00;3.60;;;;;;;;;;5040982;28;20041;-51
2022/03/07 05:23:18;;;;;;;10.93;3.45;;;;;;;;;;5018925;28;20049;-53
2022/03/07 05:25:44;;;;;;;12.95;3.75;;;;;;;;;;5041739;28;20049;-51
2022/03/07 05:28:10;;;;;;;7.18;3.08;;;;;;;;;;5034318;28;20037;-53
2022/03/07 05:30:36;;;;;;;7.35;2.92;;;;;;;;;;5031763;28;20063;-49
2022/03/07 05:33:03;;;;;;;5.78;3.30;;;;;;;;;;5026023;28;20038;-48
2022/03/07 05:35:29;;;;;;;6.25;3.17;;;;;;;;;;5031104;28;20501;-50
2022/03/07 05:37:55;;;;;;;9.85;3.45;;;;;;;;;;5034569;28;20037;-49
2022/03/07 05:40:24;;;;;;;8.50;3.13;;;;;;;;;;5033342;28;20648;-49
2022/03/07 05:42:50;;;;;;;7.65;3.22;;;;;;;;;;5030005;28;20056;-53
2022/03/07 05:45:16;;;;;;;5.43;3.03;;;;;;;;;;5036234;28;20061;-50
2022/03/07 05:47:42;;;;;;;8.05;2.88;;;;;;;;;;5035293;28;20053;-52
2022/03/07 05:50:10;;;;;;;6.07;2.53;;;;;;;;;;5029036;28;20033;-48
2022/03/07 05:52:36;;;;;;;5.80;2.78;;;;;;;;;;5032508;28;20041;-50
2022/03/07 05:55:04;;;;;;;10.48;3.30;;;;;;;;;;5033435;28;20428;-50
2022/03/07 05:57:32;;;;;;;10.05;3.10;;;;;;;;;;5030089;28;20587;-55
2022/03/07 05:59:58;;;;;;;5.97;2.88;;;;;;;;;;5034926;28;20037;-49
2022/03/07 06:02:24;;;;;;;7.80;2.85;;;;;;;;;;5033784;28;20064;-53
2022/03/07 06:04:50;;;;;;;8.85;2.92;;;;;;;;;;5030990;28;20513;-49
2022/03/07 06:07:16;;;;;;;6.95;2.97;;;;;;;;;;5029376;28;20258;-52
2022/03/07 06:09:42;;;;;;;5.95;2.92;;;;;;;;;;5026818;28;20080;-52
2022/03/07 06:12:10;;;;;;;5.75;3.15;;;;;;;;;;5032654;28;20106;-48
2022/03/07 06:14:36;;;;;;;8.20;3.03;;;;;;;;;;5013580;28;20056;-48
2022/03/07 06:17:02;;;;;;;7.65;3.33;;;;;;;;;;5031455;28;20033;-48
2022/03/07 06:19:29;;;;;;;7.22;2.88;;;;;;;;;;5027387;28;20561;-50
2022/03/07 06:21:55;;;;;;;9.73;2.90;;;;;;;;;;5034214;28;20034;-52
2022/03/07 06:24:21;;;;;;;6.57;3.30;;;;;;;;;;5014713;28;20072;-49
2022/03/07 06:26:47;;;;;;;11.45;3.03;;;;;;;;;;5032213;28;20521;-49
2022/03/07 06:29:15;;;;;;;6.93;2.72;;;;;;;;;;5028953;28;20184;-48
2022/03/07 06:31:41;;;;;;;8.75;2.58;;;;;;;;;;5035070;28;20083;-48
2022/03/07 06:34:07;;;;;;;6.45;2.50;;;;;;;;;;5030250;28;20557;-48
2022/03/07 06:36:35;;;;;;;7.60;3.25;;;;;;;;;;5034426;28;20048;-49
2022/03/07 06:39:02;;;;;;;12.25;3.13;;;;;;;;;;5039766;28;20523;-50
2022/03/07 06:41:28;;;;;;;9.00;3.35;;;;;;;;;;5037955;28;20033;-48
2022/03/07 06:43:54;;;;;;;7.88;3.38;;;;;;;;;;5030943;28;20517;-52
2022/03/07 06:46:22;;;;;;;7.63;3.08;;;;;;;;;;5033100;28;20682;-51
2022/03/07 06:48:48;;;;;;;7.68;3.00;;;;;;;;;;5036819;28;20501;-49
2022/03/07 06:51:14;;;;;;;9.05;3.78;;;;;;;;;;5028944;28;20041;-48
2022/03/07 06:53:40;;;;;;;9.85;3.95;;;;;;;;;;5035282;28;20056;-49
2022/03/07 06:56:06;;;;;;;10.48;3.80;;;;;;;;;;5031465;28;20091;-57
2022/03/07 06:58:32;;;;;;;10.77;4.45;;;;;;;;;;5030182;28;21180;-55
2022/03/07 07:01:00;;;;;;;12.15;4.85;;;;;;;;;;5037472;28;20190;-58
2022/03/07 07:03:26;;;;;;;13.00;4.18;;;;;;;;;;5030764;28;20090;-57
2022/03/07 07:05:52;;;;;;;10.13;4.30;;;;;;;;;;5004696;28;20136;-57
2022/03/07 07:08:18;;;;;;;7.28;3.75;;;;;;;;;;5031215;28;20082;-60
2022/03/07 07:10:44;;;;;;;8.77;4.07;;;;;;;;;;5039198;28;20052;-54
2022/03/07 07:13:14;;;;;;;8.38;3.53;;;;;;;;;;5035111;28;20128;-55
2022/03/07 07:15:42;;;;;;;8.60;3.60;;;1.70;99.90;;;;;;5040160;28;20059;-54
2022/03/07 07:18:08;;;;;;;6.25;3.22;;;;;;;;;;5034966;28;20057;-55
2022/03/07 07:20:34;;;;;;;7.53;3.47;;;;;;;;;;5035897;28;20038;-55
2022/03/07 07:22:59;;;;;;;7.10;2.80;;;2.90;99.90;;;;;;5038211;28;20048;-55
2022/03/07 07:25:26;;;;;;;8.23;3.47;;;;;;;;;;5034101;28;20056;-55
2022/03/07 07:27:52;;;;;;;8.80;3.13;;;;;;;;;;5005504;28;20061;-55
2022/03/07 07:30:18;;;;;;;7.50;3.22;;;;;;;;;;5036046;28;20235;-57
2022/03/07 07:32:44;;;;;;;8.68;3.38;;;;;;;;;;5028204;28;20045;-55
2022/03/07 07:35:10;;;;;;;6.55;2.95;;;;;;;;;;5035509;28;20132;-56
2022/03/07 07:37:38;;;;;;;7.22;2.75;;;3.90;99.90;;;;;;5042464;28;20032;-55
2022/03/07 07:40:05;;;;;;;6.72;2.67;;;;;;;;;;5039419;28;20044;-57
2022/03/07 07:42:31;;;;;;;7.78;3.20;;;;;;;;;;5034368;28;20048;-56
2022/03/07 07:45:00;;;;;;;8.02;3.03;;;4.80;99.90;;;;;;5043583;28;20138;-56
2022/03/07 07:47:25;;;;;;;9.38;4.05;;;5.60;99.90;;;;;;5037605;28;20040;-57
2022/03/07 07:49:51;;;;;;;6.35;2.95;;;6.00;99.90;;;;;;5043223;28;20060;-58
2022/03/07 07:52:17;;;;;;;7.65;2.58;;;6.30;99.90;;;;;;5033479;28;20041;-57
2022/03/07 07:54:42;;;;;;;6.68;2.97;;;6.70;99.90;;;;;;5042783;28;20040;-57
2022/03/07 07:57:10;;;;;;;6.75;2.30;;;6.70;99.90;;;;;;5040174;28;20087;-57
2022/03/07 07:59:36;;;;;;;7.05;2.85;;;7.00;99.90;;;;;;5038401;28;20037;-57
2022/03/07 08:02:02;;;;;;;7.45;3.10;;;7.30;99.90;;;;;;5039450;28;20524;-57
2022/03/07 08:04:27;;;;;;;5.53;2.38;;;7.20;99.90;;;;;;5040461;28;20512;-57
2022/03/07 08:06:53;;;;;;;8.07;3.47;;;7.00;99.90;;;;;;5041518;28;20539;-57
2022/03/07 08:09:19;;;;;;;8.73;2.80;;;6.50;99.90;;;;;;5037980;28;20246;-57
2022/03/07 08:11:44;;;;;;;9.45;3.28;;;6.40;99.90;;;;;;5031215;28;20037;-56
2022/03/07 08:14:10;;;;;;;11.02;3.60;;;6.10;99.90;;;;;;5025297;28;20033;-56
2022/03/07 08:16:36;;;;;;;7.40;3.17;;;6.20;99.90;;;;;;5029962;28;20106;-57
2022/03/07 08:19:02;;;;;;;8.18;4.07;;;6.50;99.90;;;;;;5038277;28;20037;-57
2022/03/07 08:21:28;;;;;;;9.38;3.08;;;6.70;99.90;;;;;;5037948;28;20046;-57
2022/03/07 08:23:54;;;;;;;11.50;4.05;;;6.80;99.90;;;;;;5040557;28;20109;-57
2022/03/07 08:26:22;;;;;;;16.73;5.45;;;6.70;99.90;;;;;;5033719;28;20042;-57
2022/03/07 08:28:47;;;;;;;18.90;11.70;;;6.90;99.90;;;;;;5036162;28;20045;-58
2022/03/07 08:31:13;;;;;;;9.55;3.60;;;6.80;99.90;;;;;;5035425;28;20590;-59
2022/03/07 08:33:39;;;;;;;9.88;3.15;;;7.30;99.90;;;;;;5024357;28;20136;-57
2022/03/07 08:36:04;;;;;;;8.57;3.13;;;7.70;99.90;;;;;;5038052;28;20047;-58
2022/03/07 08:38:32;;;;;;;11.90;3.22;;;8.10;99.90;;;;;;5034528;28;20041;-58
2022/03/07 08:40:58;;;;;;;10.88;3.30;;;;;;;;;;5039316;28;20520;-58
2022/03/07 08:43:26;;;;;;;11.23;4.55;;;8.20;99.90;;;;;;5033487;28;20584;-58
2022/03/07 08:45:52;;;;;;;6.75;3.17;;;;;;;;;;5040902;28;20057;-58
2022/03/07 08:48:17;;;;;;;4.55;2.35;;;8.10;99.90;;;;;;5036723;28;20050;-58
2022/03/07 08:50:48;;;;;;;8.55;2.65;;;8.00;99.90;;;;;;5039679;28;20041;-58
2022/03/07 08:53:16;;;;;;;8.07;2.70;;;7.70;99.90;;;;;;5033857;28;20147;-58
2022/03/07 08:55:42;;;;;;;7.35;2.22;;;7.50;99.90;;;;;;5031991;28;20036;-58
2022/03/07 08:58:08;;;;;;;5.32;2.33;;;;;;;;;;5040803;28;20052;-57
2022/03/07 09:00:33;;;;;;;10.02;4.30;;;7.30;99.90;;;;;;5038679;28;20040;-57
2022/03/07 09:03:00;;;;;;;10.00;3.97;;;;;;;;;;5041460;28;21530;-58
2022/03/07 09:05:26;;;;;;;5.82;2.33;;;8.60;99.90;;;;;;5038453;28;20073;-58
2022/03/07 09:07:54;;;;;;;4.57;1.67;;;8.80;99.90;;;;;;5032780;28;20112;-58
2022/03/07 09:10:19;;;;;;;4.85;2.30;;;8.90;99.90;;;;;;5042834;28;20051;-58
2022/03/07 09:12:45;;;;;;;6.45;2.25;;;8.70;99.90;;;;;;5034430;28;20037;-58
2022/03/07 09:15:11;;;;;;;5.75;2.40;;;8.70;99.90;;;;;;5038330;28;20716;-59
2022/03/07 09:17:37;;;;;;;9.40;3.53;;;8.70;99.90;;;;;;5024858;28;20033;-58
2022/03/07 09:20:05;;;;;;;6.20;2.28;;;9.00;99.90;;;;;;5037731;28;20048;-58
2022/03/07 09:22:31;;;;;;;4.97;1.75;;;9.40;99.90;;;;;;5031491;28;20486;-58
2022/03/07 09:24:57;;;;;;;8.30;1.92;;;10.00;99.90;;;;;;5036093;28;20437;-58
2022/03/07 09:27:23;;;;;;;6.15;1.88;;;10.50;99.90;;;;;;5017926;28;20040;-58
2022/03/07 09:29:48;;;;;;;4.00;1.70;;;10.90;99.90;;;;;;5023046;28;20179;-58
2022/03/07 09:32:14;;;;;;;6.70;2.17;;;11.70;99.90;;;;;;5034505;28;20040;-58
2022/03/07 09:34:40;;;;;;;6.60;1.67;;;11.60;99.90;;;;;;5031983;28;20405;-58
2022/03/07 09:37:10;;;;;;;6.35;2.17;;;12.30;99.90;;;;;;5021273;28;20048;-58
2022/03/07 09:39:36;;;;;;;4.80;1.55;;;12.50;99.90;;;;;;5038706;28;20041;-58
2022/03/07 09:42:02;;;;;;;6.57;1.60;;;13.20;99.90;;;;;;5034907;28;20029;-58
2022/03/07 09:44:29;;;;;;;6.53;1.80;;;10.60;99.90;;;;;;5036802;28;20064;-58
2022/03/07 09:46:57;;;;;;;6.00;2.22;;;11.80;99.90;;;;;;5034932;28;20428;-57
2022/03/07 09:49:23;;;;;;;5.93;1.83;;;10.10;99.90;;;;;;5031444;28;20036;-57
2022/03/07 09:51:52;;;;;;;9.55;2.47;;;9.90;99.90;;;;;;5032432;28;20498;-57
2022/03/07 09:54:17;;;;;;;7.03;2.25;;;9.60;99.90;;;;;;5031705;28;20300;-57
2022/03/07 09:56:43;;;;;;;5.90;1.92;;;9.30;99.90;;;;;;5033314;28;20045;-57
2022/03/07 09:59:09;;;;;;;7.78;2.00;;;9.10;99.90;;;;;;5030666;28;20056;-57
2022/03/07 10:01:36;;;;;;;7.18;1.80;;;9.90;99.90;;;;;;5034948;28;20052;-57
2022/03/07 10:04:10;;;;;;;7.30;2.30;;;9.40;99.90;;;;;;5036615;28;20045;-57
2022/03/07 10:06:36;;;;;;;8.57;2.25;;;9.60;99.90;;;;;;5026412;28;20040;-57
2022/03/07 10:09:04;;;;;;;8.70;1.92;;;8.70;99.90;;;;;;5012000;28;20387;-57
2022/03/07 10:11:31;;;;;;;8.52;1.98;;;8.60;99.90;;;;;;5037010;28;20040;-56
2022/03/07 10:14:04;;;;;;;6.72;1.60;;;8.80;99.90;;;;;;5032942;28;20534;-57
2022/03/07 10:16:37;;;;;;;7.30;2.72;;;8.60;99.90;;;;;;5038014;28;20041;-57
2022/03/07 10:19:10;;;;;;;5.55;2.00;;;8.60;99.90;;;;;;5035214;28;20167;-57
2022/03/07 10:21:37;;;;;;;4.82;1.75;;;8.80;99.90;;;;;;5040709;28;20120;-57
2022/03/07 10:24:03;;;;;;;5.63;1.60;;;8.90;99.90;;;;;;5032231;28;20033;-56
2022/03/07 10:26:34;;;;;;;4.82;1.63;;;8.80;99.90;;;;;;5037187;28;20052;-57
2022/03/07 10:29:00;;;;;;;6.03;2.27;;;;;;;;;;5036245;28;22062;-57
2022/03/07 10:31:29;;;;;;;4.05;1.48;;;8.90;99.90;;;;;;5029175;28;20100;-57
2022/03/07 10:34:09;;;;;;;5.65;1.85;;;8.60;99.90;;;;;;5036860;28;20068;-56
2022/03/07 10:36:38;;;;;;;10.00;1.85;;;8.80;99.90;;;;;;5030621;28;20041;-57
2022/03/07 10:39:06;;;;;;;8.65;1.58;;;9.00;99.90;;;;;;5031423;28;20057;-57
2022/03/07 10:41:41;;;;;;;5.10;1.60;;;9.00;99.90;;;;;;5030057;28;20037;-57
2022/03/07 10:44:10;;;;;;;8.05;1.70;;;10.80;99.90;;;;;;5042373;28;20045;-56
2022/03/07 10:46:36;;;;;;;7.35;1.58;;;;;;;;;;5033036;28;20498;-56
2022/03/07 10:49:02;;;;;;;8.10;2.05;;;;;;;;;;5040708;28;20107;-57
2022/03/07 10:51:29;;;;;;;6.68;1.80;;;;;;;;;;5036775;28;20480;-57
2022/03/07 10:53:55;;;;;;;8.05;2.42;;;;;;;;;;5043647;28;20576;-57
2022/03/07 10:56:23;;;;;;;6.80;1.90;;;;;;;;;;5034382;28;20061;-56
2022/03/07 10:58:54;;;;;;;8.88;2.38;;;7.60;99.90;;;;;;5009550;28;20355;-57
2022/03/07 11:01:29;;;;;;;5.80;1.70;;;7.90;99.90;;;;;;5034483;28;20037;-57
2022/03/07 11:03:55;;;;;;;5.75;2.03;;;;;;;;;;5034133;28;20044;-57
2022/03/07 11:06:21;;;;;;;5.40;1.80;;;;;;;;;;5039533;28;20047;-57
2022/03/07 11:08:49;;;;;;;4.68;1.75;;;8.10;99.90;;;;;;5039122;28;20750;-57
2022/03/07 11:11:16;;;;;;;6.20;2.15;;;7.90;99.90;;;;;;5040559;28;20055;-58
2022/03/07 11:13:43;;;;;;;5.43;1.88;;;7.80;99.90;;;;;;5035714;28;20041;-57
2022/03/07 11:16:10;;;;;;;6.22;2.08;;;;;;;;;;5044246;28;20037;-58
2022/03/07 11:18:36;;;;;;;4.90;1.65;;;;;;;;;;5034803;28;20129;-57
2022/03/07 11:21:05;;;;;;;5.03;1.60;;;;;;;;;;5037205;28;20650;-57
2022/03/07 11:23:32;;;;;;;4.03;1.60;;;;;;;;;;5017460;28;20048;-58
2022/03/07 11:25:58;;;;;;;5.57;1.65;;;8.40;99.90;;;;;;5033758;28;20136;-57
2022/03/07 11:28:27;;;;;;;5.50;1.42;;;8.90;99.90;;;;;;5040982;28;20600;-59
2022/03/07 11:30:53;;;;;;;8.15;2.03;;;;;;;;;;5040392;28;20048;-57
2022/03/07 11:33:23;;;;;;;7.03;2.25;;;9.50;99.90;;;;;;5035866;28;20436;-58
2022/03/07 11:35:52;;;;;;;5.97;1.80;;;10.20;99.90;;;;;;5040488;28;20140;-58
2022/03/07 11:38:23;;;;;;;3.38;1.20;;;9.70;99.90;;;;;;5038825;28;20045;-57
2022/03/07 11:41:06;;;;;;;5.78;1.20;;;9.80;99.90;;;;;;5045806;28;20098;-58
2022/03/07 11:43:34;;;;;;;3.70;1.20;;;10.00;99.90;;;;;;5032810;28;20517;-58
2022/03/07 11:46:06;;;;;;;5.78;1.30;;;9.60;99.90;;;;;;5023949;28;20049;-58
2022/03/07 11:48:47;;;;;;;4.37;1.37;;;9.60;99.90;;;;;;5041137;28;20041;-58
2022/03/07 11:51:27;;;;;;;5.68;1.20;;;9.10;99.90;;;;;;5034118;28;20796;-58
2022/03/07 11:53:55;;;;;;;4.35;1.42;;;9.10;99.90;;;;;;5037832;28;20041;-57
2022/03/07 11:56:31;;;;;;;5.72;1.52;;;8.90;99.90;;;;;;5031677;28;20505;-59
2022/03/07 11:58:59;;;;;;;8.10;1.77;;;8.70;99.90;;;;;;5037135;28;20029;-58
2022/03/07 12:01:27;;;;;;;4.43;1.20;;;8.90;99.90;;;;;;5038525;28;20033;-58
2022/03/07 12:03:53;;;;;;;8.20;1.48;;;;;;;;;;5030114;28;20037;-58
2022/03/07 12:06:21;;;;;;;3.90;1.30;;;8.40;99.90;;;;;;5031338;28;20044;-58
2022/03/07 12:08:56;;;;;;;5.05;1.73;;;8.00;99.90;;;;;;5036911;28;20111;-58
2022/03/07 12:11:31;;;;;;;4.38;1.55;;;8.00;99.90;;;;;;5033805;28;20041;-58
2022/03/07 12:14:03;;;;;;;5.78;1.95;;;7.90;99.90;;;;;;5041191;28;20501;-58
2022/03/07 12:16:34;;;;;;;5.22;1.77;;;7.80;99.90;;;;;;5029032;28;20040;-59
2022/03/07 12:19:32;;;;;;;4.40;1.52;;;8.00;99.90;;;;;;5037643;28;20520;-58
2022/03/07 12:21:58;;;;;;;7.78;2.15;;;;;;;;;;4990670;28;20061;-59
2022/03/07 12:24:26;;;;;;;6.68;1.90;;;8.30;99.90;;;;;;4993822;28;20961;-59
2022/03/07 12:26:56;;;;;;;3.85;1.40;;;8.30;99.90;;;;;;4995275;28;20509;-59
2022/03/07 12:29:24;;;;;;;5.05;1.52;;;8.60;99.90;;;;;;4992985;28;20050;-58
2022/03/07 12:31:55;;;;;;;4.80;1.73;;;8.90;99.90;;;;;;4993081;28;20053;-58
2022/03/07 12:34:26;;;;;;;3.45;1.20;;;9.00;99.90;;;;;;4992166;28;20161;-59
2022/03/07 12:37:30;;;;;;;4.07;1.40;;;8.80;99.90;;;;;;4989669;28;20038;-58
2022/03/07 12:40:03;;;;;;;6.28;1.20;;;8.40;99.90;;;;;;4984019;28;20077;-58
2022/03/07 12:42:31;;;;;;;4.88;1.92;;;8.40;99.90;;;;;;4993056;28;20046;-58
2022/03/07 12:45:00;;;;;;;3.72;1.33;;;;;;;;;;4990017;28;20058;-58
2022/03/07 12:47:40;;;;;;;4.25;1.52;;;8.50;99.90;;;;;;4992048;28;20551;-59
2022/03/07 12:50:10;;;;;;;4.03;1.20;;;8.80;99.90;;;;;;4995191;28;20045;-58
2022/03/07 12:52:38;;;;;;;4.13;1.30;;;8.90;99.90;;;;;;4996124;28;20034;-58
2022/03/07 12:55:15;;;;;;;4.28;1.30;;;8.90;99.90;;;;;;4990652;28;20042;-59
2022/03/07 12:57:42;;;;;;;3.28;1.10;;;8.80;99.90;;;;;;5009776;28;20049;-58
2022/03/07 13:00:10;;;;;;;3.55;1.15;;;8.60;99.90;;;;;;5038229;28;20141;-58
2022/03/07 13:02:41;;;;;;;3.92;1.00;;;8.50;99.90;;;;;;5031768;28;20053;-58
2022/03/07 13:05:15;;;;;;;2.73;1.53;;;8.50;99.90;;;;;;5036626;28;20045;-58
2022/03/07 13:07:54;;;;;;;3.35;1.10;;;8.50;99.90;;;;;;5039078;28;20311;-58
2022/03/07 13:10:23;;;;;;;6.25;1.45;;;;;;;;;;5033275;28;20157;-58
2022/03/07 13:12:52;;;;;;;2.78;0.90;;;8.60;99.90;;;;;;5039905;28;20049;-58
2022/03/07 13:15:19;;;;;;;2.80;0.90;;;;;;;;;;5029638;28;20041;-58
2022/03/07 13:17:45;;;;;;;3.80;1.13;;;;;;;;;;5034378;28;20048;-58
2022/03/07 13:20:22;;;;;;;3.58;1.10;;;8.60;99.90;;;;;;5038855;28;20211;-58
2022/03/07 13:22:48;;;;;;;4.45;1.38;;;;;;;;;;5038427;28;20033;-59
2022/03/07 13:25:16;;;;;;;2.83;0.93;;;8.70;99.90;;;;;;5038946;28;20493;-59
2022/03/07 13:27:48;;;;;;;5.40;1.25;;;8.70;99.90;;;;;;5039023;28;20045;-58
2022/03/07 13:30:14;;;;;;;7.50;1.02;;;8.70;99.90;;;;;;5030795;28;20625;-58
2022/03/07 13:32:41;;;;;;;3.10;1.25;;;8.70;99.90;;;;;;5036767;28;20092;-58
2022/03/07 13:35:08;;;;;;;3.85;1.90;;;8.60;99.90;;;;;;5036488;28;20446;-59
2022/03/07 13:37:44;;;;;;;5.13;1.20;;;8.60;99.90;;;;;;5039349;28;20490;-58
2022/03/07 13:40:17;;;;;;;4.57;1.33;;;8.70;99.90;;;;;;5030651;28;20419;-58
2022/03/07 13:42:48;;;;;;;3.30;1.45;;;8.80;99.90;;;;;;5034453;28;20747;-58
2022/03/07 13:45:20;;;;;;;3.38;1.02;;;8.60;99.90;;;;;;5036884;28;20505;-58
2022/03/07 13:47:52;;;;;;;6.07;1.98;;;8.50;99.90;;;;;;5036104;28;20045;-58
2022/03/07 13:50:24;;;;;;;3.75;1.30;;;8.40;99.90;;;;;;5036463;28;20517;-59
2022/03/07 13:52:53;;;;;;;4.57;1.25;;;;;;;;;;5036328;28;20049;-59
2022/03/07 13:55:20;;;;;;;3.35;1.10;;;8.70;99.90;;;;;;5037240;28;20057;-58
2022/03/07 13:57:52;;;;;;;3.78;1.10;;;8.60;99.90;;;;;;5034558;28;21066;-58
2022/03/07 14:00:18;;;;;;;3.45;1.10;;;;;;;;;;5016931;28;20045;-58
2022/03/07 14:03:05;;;;;;;4.75;1.20;;;8.50;99.90;;;;;;5033693;28;20045;-58